createdAt,value
2017-09-11T00:00:43.802Z,14.23
2017-09-11T00:01:43.515Z,14.22
2017-09-11T00:02:43.538Z,14.12
2017-09-11T00:03:43.555Z,14.12
2017-09-11T00:04:43.582Z,14.08
2017-09-11T00:05:43.596Z,14.2
2017-09-11T00:06:43.625Z,14.22
2017-09-11T00:07:43.647Z,14.05
2017-09-11T00:08:43.659Z,14.07
2017-09-11T00:09:43.682Z,14.2
2017-09-11T00:10:43.752Z,14.18
2017-09-11T00:11:43.724Z,14.18
2017-09-11T00:12:43.751Z,14.18
2017-09-11T00:13:44.078Z,14.12
2017-09-11T00:14:44.106Z,14.25
2017-09-11T00:15:43.810Z,14.08
2017-09-11T00:16:43.882Z,14.15
2017-09-11T00:17:43.852Z,14.17
2017-09-11T00:18:43.877Z,14.14
2017-09-11T00:19:43.887Z,14.07
2017-09-11T00:20:43.911Z,14.25
2017-09-11T00:21:43.932Z,14.03
2017-09-11T00:22:44.266Z,14.05
2017-09-11T00:23:43.971Z,14.03
2017-09-11T00:24:43.988Z,14.18
2017-09-11T00:25:44.017Z,14.22
2017-09-11T00:26:44.342Z,14.18
2017-09-11T00:27:44.052Z,14.35
2017-09-11T00:28:44.082Z,14.29
2017-09-11T00:29:44.090Z,14.32
2017-09-11T00:30:44.117Z,14.18
2017-09-11T00:31:44.143Z,14.18
2017-09-11T00:32:50.420Z,14.18
2017-09-11T00:33:44.192Z,14.17
2017-09-11T00:34:44.193Z,14.25
2017-09-11T00:35:44.217Z,14.18
2017-09-11T00:36:44.243Z,14.08
2017-09-11T00:37:44.268Z,14.07
2017-09-11T00:38:44.292Z,14.15
2017-09-11T00:39:44.304Z,14.23
2017-09-11T00:40:44.639Z,14.29
2017-09-11T00:41:44.343Z,14.32
2017-09-11T00:42:44.373Z,14.35
2017-09-11T00:43:44.394Z,14.3
2017-09-11T00:44:44.452Z,14.32
2017-09-11T00:45:44.427Z,14.25
2017-09-11T00:46:44.452Z,14.32
2017-09-11T00:47:44.484Z,14.14
2017-09-11T00:48:44.508Z,14.11
2017-09-11T00:49:44.507Z,14.14
2017-09-11T00:50:44.531Z,14.03
2017-09-11T00:51:44.553Z,14.07
2017-09-11T00:52:44.568Z,14
2017-09-11T00:53:44.594Z,14.08
2017-09-11T00:54:44.608Z,14.1
2017-09-11T00:55:44.637Z,14.03
2017-09-11T00:56:44.653Z,14.14
2017-09-11T00:57:44.991Z,14.03
2017-09-11T00:58:44.697Z,14.15
2017-09-11T00:59:44.714Z,14.11
2017-09-11T01:00:44.732Z,14
2017-09-11T01:01:44.765Z,14
2017-09-11T01:02:45.090Z,14
2017-09-11T01:03:44.797Z,14.12
2017-09-11T01:04:44.867Z,14.08
2017-09-11T01:05:44.839Z,14.03
2017-09-11T01:06:44.858Z,13.97
2017-09-11T01:07:44.882Z,14
2017-09-11T01:08:44.901Z,14
2017-09-11T01:09:44.948Z,14.04
2017-09-11T01:10:44.940Z,14.04
2017-09-11T01:11:44.961Z,14.12
2017-09-11T01:12:44.981Z,14.04
2017-09-11T01:13:45.010Z,14.1
2017-09-11T01:14:45.022Z,14.07
2017-09-11T01:15:45.049Z,13.9
2017-09-11T01:16:45.065Z,13.81
2017-09-11T01:17:45.085Z,13.93
2017-09-11T01:18:45.104Z,13.77
2017-09-11T01:19:45.133Z,13.78
2017-09-11T01:20:45.200Z,13.87
2017-09-11T01:21:45.167Z,13.89
2017-09-11T01:22:45.191Z,13.89
2017-09-11T01:23:45.208Z,13.9
2017-09-11T01:24:45.232Z,13.96
2017-09-11T01:25:45.247Z,13.9
2017-09-11T01:26:45.586Z,13.86
2017-09-11T01:27:45.287Z,13.89
2017-09-11T01:28:45.308Z,13.97
2017-09-11T01:29:45.339Z,14.03
2017-09-11T01:30:45.353Z,14.1
2017-09-11T01:31:45.369Z,14.07
2017-09-11T01:32:45.397Z,14.03
2017-09-11T01:33:45.411Z,14.05
2017-09-11T01:34:45.442Z,13.95
2017-09-11T01:35:45.468Z,14
2017-09-11T01:36:45.527Z,14
2017-09-11T01:37:45.493Z,14
2017-09-11T01:38:45.519Z,14.1
2017-09-11T01:39:45.537Z,13.96
2017-09-11T01:40:45.877Z,13.89
2017-09-11T01:41:45.584Z,13.85
2017-09-11T01:42:45.600Z,13.85
2017-09-11T01:43:45.618Z,13.92
2017-09-11T01:44:45.644Z,13.9
2017-09-11T01:45:45.662Z,13.83
2017-09-11T01:46:45.678Z,13.86
2017-09-11T01:47:45.700Z,13.83
2017-09-11T01:48:45.723Z,13.89
2017-09-11T01:49:45.741Z,13.87
2017-09-11T01:50:45.760Z,13.9
2017-09-11T01:51:45.855Z,13.92
2017-09-11T01:52:45.812Z,13.87
2017-09-11T01:53:45.835Z,13.89
2017-09-11T01:54:45.851Z,14.05
2017-09-11T01:55:45.870Z,14.05
2017-09-11T01:56:45.893Z,13.99
2017-09-11T01:57:45.910Z,14.08
2017-09-11T01:58:45.930Z,13.89
2017-09-11T01:59:46.264Z,13.92
2017-09-11T02:00:46.284Z,13.81
2017-09-11T02:01:46.306Z,13.87
2017-09-11T02:02:46.011Z,13.85
2017-09-11T02:03:46.027Z,13.83
2017-09-11T02:04:46.052Z,13.74
2017-09-11T02:05:46.068Z,13.79
2017-09-11T02:06:46.170Z,13.79
2017-09-11T02:07:46.421Z,13.75
2017-09-11T02:08:46.128Z,13.86
2017-09-11T02:09:46.151Z,13.83
2017-09-11T02:10:46.172Z,13.81
2017-09-11T02:11:46.192Z,13.71
2017-09-11T02:12:46.209Z,13.67
2017-09-11T02:13:46.254Z,13.62
2017-09-11T02:14:46.253Z,13.72
2017-09-11T02:15:46.278Z,13.74
2017-09-11T02:16:46.294Z,13.77
2017-09-11T02:17:46.317Z,13.87
2017-09-11T02:18:46.334Z,13.89
2017-09-11T02:19:46.684Z,13.81
2017-09-11T02:20:46.375Z,13.83
2017-09-11T02:21:46.456Z,13.74
2017-09-11T02:22:46.416Z,13.83
2017-09-11T02:23:46.762Z,13.77
2017-09-11T02:24:46.455Z,13.71
2017-09-11T02:25:46.488Z,13.72
2017-09-11T02:26:46.497Z,13.77
2017-09-11T02:27:46.521Z,13.62
2017-09-11T02:28:46.536Z,13.59
2017-09-11T02:29:46.567Z,13.59
2017-09-11T02:30:46.579Z,13.59
2017-09-11T02:31:46.602Z,13.54
2017-09-11T02:32:46.618Z,13.65
2017-09-11T02:33:46.639Z,13.63
2017-09-11T02:34:46.662Z,13.65
2017-09-11T02:35:46.694Z,13.65
2017-09-11T02:36:46.710Z,13.68
2017-09-11T02:37:47.035Z,13.74
2017-09-11T02:38:46.798Z,13.72
2017-09-11T02:39:46.770Z,13.65
2017-09-11T02:40:46.788Z,13.6
2017-09-11T02:41:47.120Z,13.56
2017-09-11T02:42:46.821Z,13.67
2017-09-11T02:43:46.847Z,13.54
2017-09-11T02:44:47.185Z,13.52
2017-09-11T02:45:46.884Z,13.5
2017-09-11T02:46:46.901Z,13.49
2017-09-11T02:47:46.920Z,13.57
2017-09-11T02:48:46.942Z,13.5
2017-09-11T02:49:46.970Z,13.47
2017-09-11T02:50:46.982Z,13.49
2017-09-11T02:51:47.023Z,13.25
2017-09-11T02:52:47.026Z,13.22
2017-09-11T02:53:47.097Z,13.28
2017-09-11T02:54:47.061Z,13.33
2017-09-11T02:55:47.087Z,13.27
2017-09-11T02:56:47.106Z,13.27
2017-09-11T02:57:47.436Z,13.22
2017-09-11T02:58:47.141Z,13.27
2017-09-11T02:59:47.164Z,13.23
2017-09-11T03:00:47.190Z,13.25
2017-09-11T03:01:47.201Z,13.37
2017-09-11T03:02:47.231Z,13.28
2017-09-11T03:03:47.239Z,13.27
2017-09-11T03:04:47.269Z,13.27
2017-09-11T03:05:47.290Z,13.31
2017-09-11T03:06:47.614Z,13.37
2017-09-11T03:07:47.322Z,13.5
2017-09-11T03:08:47.392Z,13.31
2017-09-11T03:09:47.370Z,13.28
2017-09-11T03:10:47.389Z,13.28
2017-09-11T03:11:47.402Z,13.33
2017-09-11T03:12:47.447Z,13.41
2017-09-11T03:13:47.439Z,13.5
2017-09-11T03:14:47.467Z,13.57
2017-09-11T03:15:47.482Z,13.6
2017-09-11T03:16:47.501Z,13.63
2017-09-11T03:17:47.522Z,13.57
2017-09-11T03:18:47.547Z,13.52
2017-09-11T03:19:47.567Z,13.49
2017-09-11T03:20:47.587Z,13.37
2017-09-11T03:21:47.611Z,13.46
2017-09-11T03:22:47.634Z,13.49
2017-09-11T03:23:47.696Z,13.44
2017-09-11T03:24:47.675Z,13.42
2017-09-11T03:25:47.686Z,13.28
2017-09-11T03:26:47.705Z,13.12
2017-09-11T03:27:47.732Z,13.15
2017-09-11T03:28:47.777Z,13.22
2017-09-11T03:29:47.762Z,13.27
2017-09-11T03:30:47.791Z,13.3
2017-09-11T03:31:47.813Z,13.31
2017-09-11T03:32:47.823Z,13.31
2017-09-11T03:33:47.858Z,13.3
2017-09-11T03:34:48.187Z,13.35
2017-09-11T03:35:47.886Z,13.31
2017-09-11T03:36:48.223Z,13.25
2017-09-11T03:37:47.924Z,13.3
2017-09-11T03:38:47.949Z,13.33
2017-09-11T03:39:47.970Z,13.44
2017-09-11T03:40:47.984Z,13.35
2017-09-11T03:41:48.007Z,13.41
2017-09-11T03:42:48.030Z,13.37
2017-09-11T03:43:48.055Z,13.39
2017-09-11T03:44:48.125Z,13.47
2017-09-11T03:45:48.088Z,13.46
2017-09-11T03:46:48.109Z,13.6
2017-09-11T03:47:48.133Z,13.57
2017-09-11T03:48:48.149Z,13.57
2017-09-11T03:49:48.479Z,13.57
2017-09-11T03:50:48.193Z,13.7
2017-09-11T03:51:48.210Z,13.49
2017-09-11T03:52:48.233Z,13.5
2017-09-11T03:53:48.257Z,13.44
2017-09-11T03:54:48.276Z,13.47
2017-09-11T03:55:48.600Z,13.09
2017-09-11T03:56:48.309Z,13.12
2017-09-11T03:57:48.329Z,13.16
2017-09-11T03:58:48.351Z,13.01
2017-09-11T03:59:48.383Z,13.03
2017-09-11T04:00:48.400Z,13.01
2017-09-11T04:01:48.462Z,12.91
2017-09-11T04:02:48.430Z,12.9
2017-09-11T04:03:48.461Z,12.86
2017-09-11T04:04:48.779Z,12.8
2017-09-11T04:05:48.487Z,12.76
2017-09-11T04:06:48.506Z,12.85
2017-09-11T04:07:48.528Z,12.86
2017-09-11T04:08:48.558Z,12.61
2017-09-11T04:09:48.568Z,12.72
2017-09-11T04:10:48.907Z,12.78
2017-09-11T04:11:48.608Z,12.73
2017-09-11T04:12:48.632Z,12.78
2017-09-11T04:13:48.653Z,12.65
2017-09-11T04:14:48.988Z,12.72
2017-09-11T04:15:48.687Z,12.78
2017-09-11T04:16:48.760Z,12.78
2017-09-11T04:17:48.729Z,12.64
2017-09-11T04:18:48.743Z,12.6
2017-09-11T04:19:48.769Z,12.76
2017-09-11T04:20:49.111Z,12.65
2017-09-11T04:21:49.118Z,12.67
2017-09-11T04:22:48.830Z,12.82
2017-09-11T04:23:48.849Z,12.75
2017-09-11T04:24:48.876Z,12.79
2017-09-11T04:25:48.883Z,12.78
2017-09-11T04:26:48.904Z,12.95
2017-09-11T04:27:48.922Z,12.82
2017-09-11T04:28:48.946Z,12.94
2017-09-11T04:29:48.967Z,12.87
2017-09-11T04:30:48.984Z,12.9
2017-09-11T04:31:49.012Z,12.9
2017-09-11T04:32:49.029Z,12.91
2017-09-11T04:33:49.043Z,12.85
2017-09-11T04:34:49.063Z,12.82
2017-09-11T04:35:49.095Z,12.94
2017-09-11T04:36:49.104Z,12.91
2017-09-11T04:37:49.122Z,12.93
2017-09-11T04:38:49.452Z,12.95
2017-09-11T04:39:49.160Z,12.9
2017-09-11T04:40:49.502Z,12.86
2017-09-11T04:41:49.198Z,12.7
2017-09-11T04:42:49.229Z,12.75
2017-09-11T04:43:49.243Z,12.64
2017-09-11T04:44:49.578Z,12.64
2017-09-11T04:45:49.284Z,12.6
2017-09-11T04:46:49.306Z,12.61
2017-09-11T04:47:49.636Z,12.65
2017-09-11T04:48:49.394Z,12.57
2017-09-11T04:49:49.672Z,12.55
2017-09-11T04:50:49.388Z,12.43
2017-09-11T04:51:49.416Z,12.49
2017-09-11T04:52:49.426Z,12.46
2017-09-11T04:53:49.445Z,12.57
2017-09-11T04:54:49.472Z,12.61
2017-09-11T04:55:49.478Z,12.61
2017-09-11T04:56:49.510Z,12.61
2017-09-11T04:57:49.519Z,12.73
2017-09-11T04:58:49.552Z,12.79
2017-09-11T04:59:49.870Z,12.8
2017-09-11T05:00:49.890Z,12.8
2017-09-11T05:01:49.599Z,12.85
2017-09-11T05:02:49.620Z,12.9
2017-09-11T05:03:49.641Z,12.85
2017-09-11T05:04:49.667Z,12.87
2017-09-11T05:05:49.680Z,12.91
2017-09-11T05:06:49.749Z,12.91
2017-09-11T05:07:49.721Z,12.98
2017-09-11T05:08:49.739Z,12.91
2017-09-11T05:09:50.093Z,12.98
2017-09-11T05:10:49.788Z,12.94
2017-09-11T05:11:49.808Z,12.9
2017-09-11T05:12:49.821Z,13.01
2017-09-11T05:13:50.152Z,12.95
2017-09-11T05:14:49.862Z,12.94
2017-09-11T05:15:49.883Z,13.03
2017-09-11T05:16:49.899Z,12.94
2017-09-11T05:17:49.921Z,13.01
2017-09-11T05:18:49.940Z,13.01
2017-09-11T05:19:49.955Z,12.91
2017-09-11T05:20:49.980Z,13.05
2017-09-11T05:21:50.314Z,13.03
2017-09-11T05:22:50.026Z,13.09
2017-09-11T05:23:50.036Z,13.19
2017-09-11T05:24:50.067Z,13.22
2017-09-11T05:25:50.080Z,13.23
2017-09-11T05:26:50.096Z,13.37
2017-09-11T05:27:50.133Z,13.31
2017-09-11T05:28:50.147Z,13.71
2017-09-11T05:29:50.162Z,13.74
2017-09-11T05:30:50.181Z,13.67
2017-09-11T05:31:50.518Z,13.62
2017-09-11T05:32:50.219Z,13.62
2017-09-11T05:33:50.247Z,13.53
2017-09-11T05:34:50.896Z,13.31
2017-09-11T05:35:50.285Z,13.27
2017-09-11T05:36:50.299Z,13.16
2017-09-11T05:37:50.324Z,13.08
2017-09-11T05:38:50.389Z,13.05
2017-09-11T05:39:50.370Z,12.98
2017-09-11T05:40:50.381Z,12.9
2017-09-11T05:41:50.400Z,12.78
2017-09-11T05:42:50.421Z,12.8
2017-09-11T05:43:50.450Z,12.79
2017-09-11T05:44:50.462Z,12.83
2017-09-11T05:45:50.481Z,12.8
2017-09-11T05:46:50.497Z,12.8
2017-09-11T05:47:50.518Z,12.83
2017-09-11T05:48:50.542Z,12.79
2017-09-11T05:49:50.566Z,12.86
2017-09-11T05:50:50.582Z,12.94
2017-09-11T05:51:50.595Z,13.01
2017-09-11T05:52:50.623Z,13.09
2017-09-11T05:53:50.689Z,13
2017-09-11T05:54:50.661Z,13
2017-09-11T05:55:50.678Z,13.04
2017-09-11T05:56:50.709Z,13.05
2017-09-11T05:57:50.728Z,13.22
2017-09-11T05:58:51.051Z,13.22
2017-09-11T05:59:50.777Z,13.15
2017-09-11T06:00:50.785Z,13.12
2017-09-11T06:01:50.808Z,13.22
2017-09-11T06:02:50.824Z,13.28
2017-09-11T06:03:50.845Z,13.31
2017-09-11T06:04:50.861Z,13.44
2017-09-11T06:05:50.886Z,13.44
2017-09-11T06:06:50.908Z,13.42
2017-09-11T06:07:50.928Z,13.56
2017-09-11T06:08:51.253Z,13.59
2017-09-11T06:09:50.965Z,13.74
2017-09-11T06:10:50.987Z,13.78
2017-09-11T06:11:51.004Z,13.81
2017-09-11T06:12:51.031Z,13.87
2017-09-11T06:13:51.047Z,13.97
2017-09-11T06:14:51.062Z,13.85
2017-09-11T06:15:51.100Z,13.75
2017-09-11T06:16:51.121Z,14.04
2017-09-11T06:17:51.126Z,14.07
2017-09-11T06:18:51.147Z,14.15
2017-09-11T06:19:51.171Z,14.2
2017-09-11T06:20:51.186Z,14.26
2017-09-11T06:21:51.213Z,14.32
2017-09-11T06:22:51.241Z,14.3
2017-09-11T06:23:51.570Z,14.44
2017-09-11T06:24:51.277Z,14.36
2017-09-11T06:25:51.299Z,14.47
2017-09-11T06:26:51.628Z,14.5
2017-09-11T06:27:51.334Z,14.6
2017-09-11T06:28:51.357Z,14.5
2017-09-11T06:29:51.381Z,14.58
2017-09-11T06:30:51.451Z,14.51
2017-09-11T06:31:51.428Z,14.58
2017-09-11T06:32:51.450Z,14.54
2017-09-11T06:33:51.467Z,14.54
2017-09-11T06:34:51.487Z,14.53
2017-09-11T06:35:51.512Z,14.55
2017-09-11T06:36:51.542Z,14.48
2017-09-11T06:37:51.566Z,14.48
2017-09-11T06:38:51.572Z,14.51
2017-09-11T06:39:51.647Z,14.51
2017-09-11T06:40:51.610Z,14.65
2017-09-11T06:41:51.639Z,14.72
2017-09-11T06:42:51.657Z,14.81
2017-09-11T06:43:51.684Z,14.86
2017-09-11T06:44:51.711Z,14.85
2017-09-11T06:45:51.726Z,14.85
2017-09-11T06:46:51.741Z,14.77
2017-09-11T06:47:51.770Z,14.7
2017-09-11T06:48:51.785Z,14.72
2017-09-11T06:49:51.811Z,14.82
2017-09-11T06:50:52.236Z,14.86
2017-09-11T06:51:51.912Z,14.85
2017-09-11T06:52:51.875Z,15.19
2017-09-11T06:53:51.892Z,15.27
2017-09-11T06:54:51.918Z,15.27
2017-09-11T06:55:51.983Z,15.35
2017-09-11T06:56:51.959Z,15.43
2017-09-11T06:57:51.983Z,15.57
2017-09-11T06:58:52.000Z,15.73
2017-09-11T06:59:52.049Z,15.86
2017-09-11T07:00:52.068Z,15.8
2017-09-11T07:01:52.070Z,15.68
2017-09-11T07:02:52.098Z,15.67
2017-09-11T07:03:52.118Z,15.75
2017-09-11T07:04:52.128Z,15.77
2017-09-11T07:05:52.152Z,15.84
2017-09-11T07:06:52.175Z,15.9
2017-09-11T07:07:52.203Z,15.8
2017-09-11T07:08:52.221Z,15.91
2017-09-11T07:09:52.243Z,15.97
2017-09-11T07:10:52.317Z,16.01
2017-09-11T07:11:52.289Z,15.97
2017-09-11T07:12:52.304Z,16
2017-09-11T07:13:52.645Z,15.9
2017-09-11T07:14:52.665Z,16.02
2017-09-11T07:15:52.383Z,16.02
2017-09-11T07:16:52.403Z,15.95
2017-09-11T07:17:52.419Z,16.01
2017-09-11T07:18:52.443Z,16.05
2017-09-11T07:19:52.466Z,15.98
2017-09-11T07:20:52.799Z,15.9
2017-09-11T07:21:52.511Z,15.86
2017-09-11T07:22:52.531Z,15.79
2017-09-11T07:23:52.598Z,15.92
2017-09-11T07:24:52.576Z,15.79
2017-09-11T07:25:52.912Z,15.72
2017-09-11T07:26:52.620Z,15.88
2017-09-11T07:27:52.648Z,15.84
2017-09-11T07:28:52.663Z,15.91
2017-09-11T07:29:52.685Z,15.86
2017-09-11T07:30:52.705Z,15.72
2017-09-11T07:31:52.736Z,15.72
2017-09-11T07:32:52.753Z,15.82
2017-09-11T07:33:52.772Z,15.83
2017-09-11T07:34:52.799Z,15.83
2017-09-11T07:35:52.818Z,15.84
2017-09-11T07:36:52.847Z,15.82
2017-09-11T07:37:52.863Z,15.94
2017-09-11T07:38:52.885Z,15.91
2017-09-11T07:39:52.908Z,16.01
2017-09-11T07:40:52.931Z,16.1
2017-09-11T07:41:52.956Z,16.09
2017-09-11T07:42:52.977Z,16.13
2017-09-11T07:43:52.993Z,16.17
2017-09-11T07:44:53.020Z,16.33
2017-09-11T07:45:53.044Z,16.42
2017-09-11T07:46:53.114Z,16.49
2017-09-11T07:47:53.091Z,16.56
2017-09-11T07:48:53.102Z,16.65
2017-09-11T07:49:53.125Z,16.69
2017-09-11T07:50:53.152Z,16.86
2017-09-11T07:51:53.171Z,16.96
2017-09-11T07:52:53.194Z,17.05
2017-09-11T07:53:53.221Z,17.24
2017-09-11T07:54:53.240Z,17.31
2017-09-11T07:55:53.263Z,17.33
2017-09-11T07:56:53.286Z,17.26
2017-09-11T07:57:53.307Z,17.29
2017-09-11T07:58:53.341Z,17.39
2017-09-11T07:59:53.358Z,17.44
2017-09-11T08:00:53.382Z,17.57
2017-09-11T08:01:53.472Z,17.56
2017-09-11T08:02:53.735Z,17.7
2017-09-11T08:03:53.650Z,17.57
2017-09-11T08:04:53.473Z,17.48
2017-09-11T08:05:53.494Z,17.41
2017-09-11T08:06:53.520Z,17.56
2017-09-11T08:07:53.539Z,17.67
2017-09-11T08:08:53.566Z,17.74
2017-09-11T08:09:53.594Z,17.56
2017-09-11T08:10:53.619Z,17.67
2017-09-11T08:11:53.636Z,17.59
2017-09-11T08:12:53.652Z,17.71
2017-09-11T08:13:53.677Z,17.72
2017-09-11T08:14:54.031Z,17.7
2017-09-11T08:15:53.729Z,17.79
2017-09-11T08:16:53.752Z,17.72
2017-09-11T08:17:53.799Z,17.95
2017-09-11T08:18:53.838Z,17.9
2017-09-11T08:19:53.838Z,17.65
2017-09-11T08:20:53.850Z,17.72
2017-09-11T08:21:53.878Z,17.76
2017-09-11T08:22:53.909Z,18
2017-09-11T08:23:54.247Z,18.16
2017-09-11T08:24:54.281Z,18.1
2017-09-11T08:25:53.965Z,17.97
2017-09-11T08:26:53.990Z,18.04
2017-09-11T08:27:54.323Z,18.23
2017-09-11T08:28:54.042Z,18.22
2017-09-11T08:29:54.061Z,18.2
2017-09-11T08:30:54.081Z,18.16
2017-09-11T08:31:54.107Z,18.23
2017-09-11T08:32:54.127Z,18.34
2017-09-11T08:33:54.155Z,18.35
2017-09-11T08:34:54.178Z,18.37
2017-09-11T08:35:54.204Z,18.5
2017-09-11T08:36:54.233Z,18.53
2017-09-11T08:37:54.262Z,18.62
2017-09-11T08:38:54.275Z,18.62
2017-09-11T08:39:54.299Z,18.84
2017-09-11T08:40:54.320Z,18.93
2017-09-11T08:41:54.355Z,18.78
2017-09-11T08:42:54.367Z,18.68
2017-09-11T08:43:54.405Z,18.4
2017-09-11T08:44:54.412Z,18.53
2017-09-11T08:45:54.444Z,18.41
2017-09-11T08:46:54.465Z,18.33
2017-09-11T08:47:54.486Z,18.26
2017-09-11T08:48:54.521Z,18.35
2017-09-11T08:49:54.563Z,18.43
2017-09-11T08:50:54.559Z,18.33
2017-09-11T08:51:54.587Z,18.13
2017-09-11T08:52:54.608Z,17.87
2017-09-11T08:53:54.639Z,17.89
2017-09-11T08:54:54.656Z,17.92
2017-09-11T08:55:54.703Z,17.9
2017-09-11T08:56:54.704Z,18
2017-09-11T08:57:54.730Z,18.1
2017-09-11T08:58:54.754Z,18.15
2017-09-11T08:59:54.775Z,18.03
2017-09-11T09:00:54.801Z,17.86
2017-09-11T09:01:54.822Z,17.98
2017-09-11T09:02:54.851Z,17.74
2017-09-11T09:03:54.871Z,17.7
2017-09-11T09:04:54.946Z,17.85
2017-09-11T09:05:54.921Z,17.79
2017-09-11T09:06:54.938Z,17.78
2017-09-11T09:07:54.972Z,17.87
2017-09-11T09:08:54.986Z,17.95
2017-09-11T09:09:55.010Z,17.94
2017-09-11T09:10:55.043Z,17.89
2017-09-11T09:11:55.064Z,17.82
2017-09-11T09:12:55.083Z,17.51
2017-09-11T09:13:55.111Z,17.48
2017-09-11T09:14:55.134Z,17.46
2017-09-11T09:15:55.160Z,17.52
2017-09-11T09:16:55.177Z,17.56
2017-09-11T09:17:55.515Z,17.51
2017-09-11T09:18:55.221Z,17.67
2017-09-11T09:19:55.297Z,17.74
2017-09-11T09:20:55.287Z,17.86
2017-09-11T09:21:55.291Z,18.15
2017-09-11T09:22:55.320Z,18.26
2017-09-11T09:23:55.339Z,18.4
2017-09-11T09:24:55.364Z,18.58
2017-09-11T09:25:55.392Z,18.58
2017-09-11T09:26:55.422Z,18.62
2017-09-11T09:27:55.459Z,18.75
2017-09-11T09:28:55.460Z,18.81
2017-09-11T09:29:55.799Z,19.12
2017-09-11T09:30:55.505Z,19.21
2017-09-11T09:31:55.530Z,19.15
2017-09-11T09:32:55.564Z,19.12
2017-09-11T09:33:55.577Z,19.09
2017-09-11T09:34:55.653Z,19.15
2017-09-11T09:35:55.627Z,19.24
2017-09-11T09:36:55.663Z,19.22
2017-09-11T09:37:55.673Z,19.18
2017-09-11T09:38:55.702Z,19.02
2017-09-11T09:39:55.778Z,18.99
2017-09-11T09:40:55.755Z,18.93
2017-09-11T09:41:55.773Z,18.88
2017-09-11T09:42:55.802Z,18.92
2017-09-11T09:43:55.826Z,18.9
2017-09-11T09:44:55.845Z,18.99
2017-09-11T09:45:55.878Z,18.95
2017-09-11T09:46:55.899Z,19.09
2017-09-11T09:47:55.930Z,19.07
2017-09-11T09:48:55.948Z,19.29
2017-09-11T09:49:56.017Z,19.27
2017-09-11T09:50:55.995Z,19.52
2017-09-11T09:51:56.335Z,19.7
2017-09-11T09:52:56.043Z,19.73
2017-09-11T09:53:56.068Z,19.81
2017-09-11T09:54:56.149Z,19.92
2017-09-11T09:55:56.119Z,20.03
2017-09-11T09:56:56.451Z,19.96
2017-09-11T09:57:56.168Z,19.91
2017-09-11T09:58:56.207Z,19.76
2017-09-11T09:59:56.523Z,19.56
2017-09-11T10:00:56.240Z,19.51
2017-09-11T10:01:56.275Z,19.4
2017-09-11T10:02:56.295Z,19.44
2017-09-11T10:03:56.327Z,19.34
2017-09-11T10:04:56.347Z,19.36
2017-09-11T10:05:56.430Z,19.19
2017-09-11T10:06:56.409Z,19.21
2017-09-11T10:07:56.441Z,19.19
2017-09-11T10:08:56.447Z,19.31
2017-09-11T10:09:56.469Z,19.31
2017-09-11T10:10:56.541Z,19.3
2017-09-11T10:11:56.518Z,19.55
2017-09-11T10:12:56.541Z,19.7
2017-09-11T10:13:56.587Z,19.66
2017-09-11T10:14:56.588Z,19.64
2017-09-11T10:15:56.613Z,19.86
2017-09-11T10:16:56.636Z,20.1
2017-09-11T10:17:56.667Z,19.95
2017-09-11T10:18:56.684Z,19.99
2017-09-11T10:19:56.763Z,20
2017-09-11T10:20:56.737Z,20.21
2017-09-11T10:21:56.766Z,20.1
2017-09-11T10:22:56.782Z,20.03
2017-09-11T10:23:56.810Z,20.03
2017-09-11T10:24:56.839Z,20.29
2017-09-11T10:25:56.867Z,20.39
2017-09-11T10:26:56.881Z,20.5
2017-09-11T10:27:56.907Z,20.75
2017-09-11T10:28:56.933Z,20.93
2017-09-11T10:29:56.963Z,21.12
2017-09-11T10:30:56.992Z,21
2017-09-11T10:31:57.011Z,21.05
2017-09-11T10:32:57.042Z,20.97
2017-09-11T10:33:57.071Z,20.84
2017-09-11T10:34:57.092Z,20.92
2017-09-11T10:35:57.122Z,20.96
2017-09-11T10:36:57.137Z,20.8
2017-09-11T10:37:57.166Z,21.06
2017-09-11T10:38:57.188Z,21.48
2017-09-11T10:39:57.230Z,21.66
2017-09-11T10:40:57.257Z,22.07
2017-09-11T10:41:57.273Z,22.28
2017-09-11T10:42:57.298Z,22.7
2017-09-11T10:43:57.640Z,23.1
2017-09-11T10:44:57.354Z,23.12
2017-09-11T10:45:57.380Z,23.1
2017-09-11T10:46:57.407Z,22.96
2017-09-11T10:47:57.434Z,23.03
2017-09-11T10:48:57.483Z,23.28
2017-09-11T10:49:57.495Z,23.28
2017-09-11T10:50:57.520Z,23.46
2017-09-11T10:51:57.556Z,23.68
2017-09-11T10:52:57.586Z,23.98
2017-09-11T10:53:57.617Z,24.57
2017-09-11T10:54:57.639Z,25.08
2017-09-11T10:55:57.976Z,24.73
2017-09-11T10:56:57.697Z,24.4
2017-09-11T10:57:57.728Z,24.4
2017-09-11T10:58:57.760Z,24.47
2017-09-11T10:59:57.840Z,24.61
2017-09-11T11:00:58.130Z,24.28
2017-09-11T11:01:58.157Z,24.74
2017-09-11T11:02:57.874Z,24.98
2017-09-11T11:03:57.903Z,25.21
2017-09-11T11:04:57.933Z,25.25
2017-09-11T11:05:57.965Z,25.4
2017-09-11T11:06:58.002Z,24.98
2017-09-11T11:07:58.028Z,24.7
2017-09-11T11:08:58.057Z,24.81
2017-09-11T11:09:58.105Z,24.68
2017-09-11T11:10:58.118Z,24.66
2017-09-11T11:11:58.471Z,24.29
2017-09-11T11:12:58.173Z,24.11
2017-09-11T11:13:58.208Z,23.87
2017-09-11T11:14:58.233Z,23.96
2017-09-11T11:15:58.262Z,24.1
2017-09-11T11:16:58.292Z,23.96
2017-09-11T11:17:58.329Z,23.84
2017-09-11T11:18:58.670Z,23.59
2017-09-11T11:19:58.695Z,23.66
2017-09-11T11:20:58.412Z,23.54
2017-09-11T11:21:58.435Z,23.58
2017-09-11T11:22:58.471Z,23.63
2017-09-11T11:23:58.500Z,23.63
2017-09-11T11:24:58.526Z,23.77
2017-09-11T11:25:58.552Z,24.11
2017-09-11T11:26:58.586Z,24.61
2017-09-11T11:27:58.629Z,25.1
2017-09-11T11:28:58.636Z,25.43
2017-09-11T11:29:58.668Z,25.91
2017-09-11T11:30:58.692Z,26.38
2017-09-11T11:31:58.724Z,26.28
2017-09-11T11:32:58.759Z,26.88
2017-09-11T11:33:58.783Z,26.62
2017-09-11T11:34:58.822Z,26.68
2017-09-11T11:35:58.858Z,27.25
2017-09-11T11:36:58.884Z,27.92
2017-09-11T11:37:58.905Z,27.52
2017-09-11T11:38:58.934Z,26.59
2017-09-11T11:39:58.967Z,26.7
2017-09-11T11:40:59.004Z,26.89
2017-09-11T11:41:59.033Z,27.33
2017-09-11T11:42:59.064Z,27.51
2017-09-11T11:43:59.102Z,27.45
2017-09-11T11:44:59.134Z,27.58
2017-09-11T11:45:59.158Z,27.77
2017-09-11T11:46:59.187Z,28.26
2017-09-11T11:47:59.273Z,28.38
2017-09-11T11:48:59.253Z,28.02
2017-09-11T11:49:59.284Z,27.67
2017-09-11T11:50:59.315Z,27.29
2017-09-11T11:51:59.665Z,27.2
2017-09-11T11:52:59.376Z,27.45
2017-09-11T11:53:59.410Z,26.89
2017-09-11T11:54:59.442Z,26.6
2017-09-11T11:55:59.478Z,26.6
2017-09-11T11:56:59.816Z,26.29
2017-09-11T11:57:59.541Z,26.59
2017-09-11T11:58:59.570Z,26.07
2017-09-11T11:59:59.609Z,26.48
2017-09-11T12:00:59.628Z,26.53
2017-09-11T12:01:59.668Z,26.81
2017-09-11T12:02:59.998Z,26.96
2017-09-11T12:03:59.726Z,27.05
2017-09-11T12:04:59.756Z,27.03
2017-09-11T12:06:00.091Z,26.63
2017-09-11T12:06:59.814Z,26.09
2017-09-11T12:07:59.843Z,25.35
2017-09-11T12:09:00.190Z,25.46
2017-09-11T12:09:59.901Z,25.17
2017-09-11T12:10:59.937Z,25.07
2017-09-11T12:11:59.965Z,25.01
2017-09-11T12:13:00.003Z,25.01
2017-09-11T12:14:00.028Z,25.03
2017-09-11T12:15:00.051Z,25.22
2017-09-11T12:16:00.083Z,25.72
2017-09-11T12:17:00.163Z,26.06
2017-09-11T12:18:00.143Z,26.53
2017-09-11T12:19:00.485Z,26.52
2017-09-11T12:20:00.205Z,26.34
2017-09-11T12:21:00.240Z,26.62
2017-09-11T12:22:00.318Z,26.92
2017-09-11T12:23:00.293Z,26.59
2017-09-11T12:24:00.323Z,26.62
2017-09-11T12:25:00.355Z,26.6
2017-09-11T12:26:00.388Z,25.98
2017-09-11T12:27:00.413Z,25.41
2017-09-11T12:28:00.452Z,25.59
2017-09-11T12:29:00.481Z,25.29
2017-09-11T12:30:00.506Z,25.48
2017-09-11T12:31:00.540Z,25.99
2017-09-11T12:32:00.567Z,25.85
2017-09-11T12:33:00.595Z,25.7
2017-09-11T12:34:00.631Z,25.81
2017-09-11T12:35:00.964Z,25.38
2017-09-11T12:36:00.684Z,24.47
2017-09-11T12:37:00.727Z,24.03
2017-09-11T12:38:00.743Z,23.87
2017-09-11T12:39:00.776Z,24.01
2017-09-11T12:40:00.816Z,23.8
2017-09-11T12:41:00.881Z,23.61
2017-09-11T12:42:00.866Z,23.24
2017-09-11T12:43:00.892Z,23.28
2017-09-11T12:44:01.234Z,22.84
2017-09-11T12:45:00.952Z,22.65
2017-09-11T12:46:00.976Z,22.51
2017-09-11T12:47:01.004Z,22.68
2017-09-11T12:48:01.355Z,22.73
2017-09-11T12:49:01.376Z,23.06
2017-09-11T12:50:01.094Z,23
2017-09-11T12:51:01.115Z,23.28
2017-09-11T12:52:01.144Z,23.62
2017-09-11T12:53:01.171Z,23.87
2017-09-11T12:54:01.203Z,23.95
2017-09-11T12:55:01.226Z,24.33
2017-09-11T12:56:01.311Z,24.43
2017-09-11T12:57:01.296Z,24.76
2017-09-11T12:58:01.336Z,24.13